createdAt,value
2023-08-15T00:00:26.794Z,20.20
2023-08-15T00:02:53.555Z,20.20
2023-08-15T00:05:20.248Z,20.20
2023-08-15T00:08:02.385Z,20.20
2023-08-15T00:10:29.182Z,20.20
2023-08-15T00:12:55.882Z,20.20
2023-08-15T00:15:22.742Z,20.20
2023-08-15T00:17:49.697Z,20.20
2023-08-15T00:20:16.551Z,20.20
2023-08-15T00:22:43.222Z,20.10
2023-08-15T00:25:09.880Z,20.10
2023-08-15T00:27:36.588Z,20.10
2023-08-15T00:30:04.350Z,20.10
2023-08-15T00:32:36.677Z,20.10
2023-08-15T00:35:04.975Z,20.00
2023-08-15T00:37:32.909Z,20.00
2023-08-15T00:39:59.774Z,20.00
2023-08-15T00:42:26.617Z,19.90
2023-08-15T00:44:53.333Z,19.90
2023-08-15T00:47:21.904Z,19.90
2023-08-15T00:49:49.109Z,19.90
2023-08-15T00:52:17.151Z,19.90
2023-08-15T00:54:47.768Z,19.80
2023-08-15T00:57:15.298Z,18.60
2023-08-15T00:59:45.324Z,19.80
2023-08-15T01:02:12.764Z,19.80
2023-08-15T01:04:41.339Z,19.80
2023-08-15T01:07:10.234Z,19.80
2023-08-15T01:09:38.420Z,19.80
2023-08-15T01:12:32.268Z,19.80
2023-08-15T01:15:30.630Z,19.80
2023-08-15T01:18:23.856Z,19.70
2023-08-15T01:20:51.599Z,19.70
2023-08-15T01:23:24.654Z,19.70
2023-08-15T01:25:55.037Z,19.70
2023-08-15T01:28:22.383Z,19.70
2023-08-15T01:31:13.662Z,19.70
2023-08-15T01:34:21.742Z,19.70
2023-08-15T01:36:53.776Z,19.60
2023-08-15T01:39:25.172Z,19.60
2023-08-15T01:41:53.428Z,19.50
2023-08-15T01:44:21.497Z,19.50
2023-08-15T01:46:48.562Z,19.40
2023-08-15T01:49:15.490Z,19.40
2023-08-15T01:51:42.181Z,19.40
2023-08-15T01:54:09.217Z,19.40
2023-08-15T01:56:36.012Z,19.40
2023-08-15T01:59:03.057Z,19.40
2023-08-15T02:01:29.855Z,19.40
2023-08-15T02:03:56.586Z,19.40
2023-08-15T02:06:23.261Z,19.40
2023-08-15T02:08:49.946Z,19.40
2023-08-15T02:11:16.772Z,19.40
2023-08-15T02:13:43.483Z,19.40
2023-08-15T02:16:10.197Z,19.30
2023-08-15T02:18:41.846Z,19.30
2023-08-15T02:21:10.358Z,19.30
2023-08-15T02:23:37.121Z,19.30
2023-08-15T02:26:04.124Z,19.30
2023-08-15T02:28:32.337Z,19.30
2023-08-15T02:30:59.403Z,19.30
2023-08-15T02:33:26.201Z,19.20
2023-08-15T02:35:53.719Z,19.20
2023-08-15T02:38:20.521Z,19.20
2023-08-15T02:40:47.184Z,19.10
2023-08-15T02:43:13.919Z,19.10
2023-08-15T02:45:40.634Z,19.10
2023-08-15T02:48:07.497Z,19.10
2023-08-15T02:50:34.286Z,19.10
2023-08-15T02:53:00.987Z,19.10
2023-08-15T02:55:27.731Z,19.10
2023-08-15T02:57:54.463Z,19.00
2023-08-15T03:00:21.291Z,19.00
2023-08-15T03:02:48.897Z,19.00
2023-08-15T03:05:15.726Z,19.00
2023-08-15T03:07:42.441Z,19.00
2023-08-15T03:10:09.305Z,19.00
2023-08-15T03:12:36.069Z,18.90
2023-08-15T03:15:03.017Z,18.90
2023-08-15T03:17:29.789Z,18.90
2023-08-15T03:19:58.680Z,18.90
2023-08-15T03:22:25.403Z,18.80
2023-08-15T03:24:52.431Z,18.80
2023-08-15T03:27:19.172Z,18.80
2023-08-15T03:29:47.319Z,18.80
2023-08-15T03:32:14.033Z,18.80
2023-08-15T03:34:40.770Z,18.80
2023-08-15T03:37:07.493Z,18.80
2023-08-15T03:39:34.227Z,18.80
2023-08-15T03:42:00.968Z,18.80
2023-08-15T03:44:27.699Z,18.80
2023-08-15T03:46:54.452Z,18.80
2023-08-15T03:49:21.209Z,18.80
2023-08-15T03:51:47.977Z,18.80
2023-08-15T03:54:17.498Z,18.80
2023-08-15T03:56:45.004Z,18.80
2023-08-15T03:59:11.753Z,18.80
2023-08-15T04:01:38.507Z,18.80
2023-08-15T04:04:05.860Z,18.80
2023-08-15T04:06:32.589Z,18.80
2023-08-15T04:08:59.397Z,18.80
2023-08-15T04:11:26.119Z,18.80
2023-08-15T04:13:52.875Z,18.80
2023-08-15T04:16:19.674Z,18.80
2023-08-15T04:18:46.471Z,18.80
2023-08-15T04:21:13.489Z,18.80
2023-08-15T04:23:40.637Z,18.90
2023-08-15T04:26:07.660Z,18.90
2023-08-15T04:28:34.498Z,18.90
2023-08-15T04:31:01.270Z,19.00
2023-08-15T04:33:27.991Z,19.00
2023-08-15T04:35:54.764Z,19.00
2023-08-15T04:38:21.847Z,19.00
2023-08-15T04:40:48.650Z,19.00
2023-08-15T04:43:16.408Z,19.00
2023-08-15T04:45:45.135Z,19.00
2023-08-15T04:48:13.977Z,18.00
2023-08-15T04:50:41.027Z,19.00
2023-08-15T04:53:08.296Z,19.10
2023-08-15T04:55:35.610Z,19.10
2023-08-15T04:58:02.798Z,19.10
2023-08-15T05:00:31.662Z,19.10
2023-08-15T05:02:59.988Z,19.10
2023-08-15T05:05:26.918Z,19.10
2023-08-15T05:07:53.640Z,19.10
2023-08-15T05:10:20.349Z,19.10
2023-08-15T05:12:47.034Z,19.20
2023-08-15T05:15:13.834Z,19.20
2023-08-15T05:17:40.701Z,19.20
2023-08-15T05:20:09.879Z,19.10
2023-08-15T05:22:36.701Z,18.90
2023-08-15T05:25:03.892Z,18.70
2023-08-15T05:27:33.511Z,18.60
2023-08-15T05:30:00.214Z,18.50
2023-08-15T05:32:26.998Z,18.50
2023-08-15T05:34:53.788Z,18.50
2023-08-15T05:37:20.949Z,18.50
2023-08-15T05:39:47.901Z,18.60
2023-08-15T05:42:18.848Z,18.50
2023-08-15T05:44:46.965Z,18.50
2023-08-15T05:47:14.347Z,18.50
2023-08-15T05:49:43.004Z,18.50
2023-08-15T05:52:10.013Z,18.60
2023-08-15T05:54:36.973Z,18.60
2023-08-15T05:57:03.834Z,18.60
2023-08-15T05:59:30.607Z,18.60
2023-08-15T06:01:57.642Z,18.60
2023-08-15T06:04:24.364Z,18.60
2023-08-15T06:06:51.022Z,18.60
2023-08-15T06:09:18.727Z,18.60
2023-08-15T06:11:45.737Z,18.60
2023-08-15T06:14:12.498Z,18.60
2023-08-15T06:16:39.276Z,18.50
2023-08-15T06:19:06.073Z,18.60
2023-08-15T06:21:32.791Z,18.50
2023-08-15T06:23:59.503Z,18.50
2023-08-15T06:26:26.190Z,18.60
2023-08-15T06:28:52.909Z,18.60
2023-08-15T06:31:19.632Z,18.70
2023-08-15T06:33:46.391Z,18.70
2023-08-15T06:36:13.033Z,18.80
2023-08-15T06:38:39.712Z,18.80
2023-08-15T06:41:07.808Z,18.80
2023-08-15T06:43:34.561Z,18.90
2023-08-15T06:46:01.458Z,18.90
2023-08-15T06:48:28.336Z,18.90
2023-08-15T06:50:55.034Z,18.90
2023-08-15T06:53:21.813Z,19.00
2023-08-15T06:55:51.647Z,18.90
2023-08-15T06:58:20.047Z,19.00
2023-08-15T07:00:46.744Z,19.00
2023-08-15T07:03:17.243Z,19.10
2023-08-15T07:05:45.664Z,19.20
2023-08-15T07:08:15.347Z,19.30
2023-08-15T07:10:42.118Z,19.30
2023-08-15T07:13:08.948Z,20.30
2023-08-15T07:15:35.653Z,19.50
2023-08-15T07:18:02.510Z,19.60
2023-08-15T07:20:31.392Z,19.70
2023-08-15T07:23:01.051Z,19.80
2023-08-15T07:25:27.820Z,19.80
2023-08-15T07:27:54.534Z,20.00
2023-08-15T07:30:21.309Z,20.10
2023-08-15T07:32:48.012Z,20.20
2023-08-15T07:35:14.750Z,20.30
2023-08-15T07:37:41.418Z,20.30
2023-08-15T07:40:10.730Z,20.40
2023-08-15T07:42:37.599Z,20.50
2023-08-15T07:45:04.823Z,20.60
2023-08-15T07:47:35.217Z,20.70
2023-08-15T07:50:14.380Z,20.80
2023-08-15T07:52:41.414Z,20.90
2023-08-15T07:55:09.289Z,21.00
2023-08-15T07:57:36.280Z,21.10
2023-08-15T08:00:04.677Z,21.10
2023-08-15T08:02:39.195Z,21.20
2023-08-15T08:05:08.707Z,21.30
2023-08-15T08:07:36.000Z,21.30
2023-08-15T08:10:03.125Z,21.40
2023-08-15T08:12:31.526Z,21.60
2023-08-15T08:14:58.661Z,21.50
2023-08-15T08:17:25.476Z,21.50
2023-08-15T08:19:52.473Z,21.50
2023-08-15T08:22:19.667Z,21.60
2023-08-15T08:24:46.904Z,21.60
2023-08-15T08:27:13.647Z,21.70
2023-08-15T08:29:40.359Z,21.70
2023-08-15T08:32:07.070Z,21.80
2023-08-15T08:34:34.152Z,21.80
2023-08-15T08:37:01.127Z,21.90
2023-08-15T08:39:32.163Z,21.90
2023-08-15T08:42:00.436Z,21.90
2023-08-15T08:44:29.698Z,22.00
2023-08-15T08:46:56.860Z,22.00
2023-08-15T08:49:25.347Z,22.00
2023-08-15T08:51:52.439Z,22.10
2023-08-15T08:54:22.527Z,22.20
2023-08-15T08:56:56.612Z,22.30
2023-08-15T08:59:25.189Z,22.40
2023-08-15T09:01:53.554Z,22.40
2023-08-15T09:04:21.989Z,22.40
2023-08-15T09:06:49.148Z,22.50
2023-08-15T09:09:15.872Z,22.60
2023-08-15T09:11:46.650Z,21.00
2023-08-15T09:14:13.378Z,22.70
2023-08-15T09:16:48.783Z,22.80
2023-08-15T09:19:16.294Z,22.90
2023-08-15T09:21:44.117Z,22.90
2023-08-15T09:24:11.325Z,22.90
2023-08-15T09:26:39.027Z,22.90
2023-08-15T09:29:06.425Z,22.90
2023-08-15T09:31:33.423Z,23.00
2023-08-15T09:34:00.104Z,23.00
2023-08-15T09:36:27.933Z,23.10
2023-08-15T09:39:00.718Z,23.10
2023-08-15T09:41:28.230Z,23.10
2023-08-15T09:43:55.742Z,23.10
2023-08-15T09:46:22.926Z,23.20
2023-08-15T09:48:50.814Z,23.20
2023-08-15T09:51:19.193Z,23.30
2023-08-15T09:53:47.564Z,23.40
2023-08-15T09:56:14.884Z,23.50
2023-08-15T09:58:41.634Z,23.60
2023-08-15T10:01:09.578Z,23.60
2023-08-15T10:03:41.157Z,23.70
2023-08-15T10:06:11.629Z,23.70
2023-08-15T10:08:43.280Z,23.80
2023-08-15T10:11:11.410Z,23.90
2023-08-15T10:13:39.349Z,24.00
2023-08-15T10:16:07.719Z,23.90
2023-08-15T10:18:35.772Z,24.00
2023-08-15T10:21:02.643Z,24.00
2023-08-15T10:23:31.065Z,24.10
2023-08-15T10:25:59.232Z,24.10
2023-08-15T10:28:35.608Z,24.20
2023-08-15T10:31:02.486Z,24.20
2023-08-15T10:33:35.202Z,24.20
2023-08-15T10:36:02.093Z,24.20
2023-08-15T10:38:41.416Z,24.20
2023-08-15T10:41:16.921Z,24.20
2023-08-15T10:43:55.176Z,24.20
2023-08-15T10:46:29.991Z,24.20
2023-08-15T10:49:05.993Z,24.30
2023-08-15T10:51:41.031Z,24.30
2023-08-15T10:54:10.560Z,24.30
2023-08-15T10:56:39.416Z,24.30
2023-08-15T10:59:07.838Z,24.40
2023-08-15T11:01:36.624Z,24.40
2023-08-15T11:04:04.883Z,24.50
2023-08-15T11:06:40.805Z,24.60
2023-08-15T11:09:07.454Z,24.60
2023-08-15T11:11:37.250Z,24.70
2023-08-15T11:14:04.066Z,24.80
2023-08-15T11:16:31.128Z,24.80
2023-08-15T11:19:00.892Z,24.90
2023-08-15T11:21:30.682Z,24.90
2023-08-15T11:24:01.934Z,24.80
2023-08-15T11:26:29.287Z,24.80
2023-08-15T11:28:55.995Z,24.70
2023-08-15T11:31:23.459Z,24.70
2023-08-15T11:33:52.552Z,24.70
2023-08-15T11:36:19.674Z,24.70
2023-08-15T11:38:46.373Z,24.60
2023-08-15T11:41:13.633Z,24.60
2023-08-15T11:43:40.876Z,24.50
2023-08-15T11:46:07.919Z,24.90
2023-08-15T11:48:35.544Z,24.60
2023-08-15T11:51:02.691Z,24.60
2023-08-15T11:53:29.410Z,24.70
2023-08-15T11:55:56.367Z,24.70
2023-08-15T11:58:27.465Z,24.70
2023-08-15T12:01:01.870Z,24.80
2023-08-15T12:03:30.163Z,24.90
2023-08-15T12:05:58.566Z,24.90
2023-08-15T12:08:27.117Z,24.90
2023-08-15T12:10:55.456Z,25.00
2023-08-15T12:13:39.450Z,25.10
2023-08-15T12:16:07.654Z,25.20
2023-08-15T12:18:35.182Z,25.20
2023-08-15T12:21:02.739Z,25.20
2023-08-15T12:23:30.190Z,25.20
2023-08-15T12:25:57.115Z,25.20
2023-08-15T12:28:24.294Z,25.20
2023-08-15T12:30:51.577Z,25.20
2023-08-15T12:33:35.156Z,25.20
2023-08-15T12:36:05.390Z,25.20
2023-08-15T12:38:32.046Z,25.30
2023-08-15T12:40:58.768Z,25.30
2023-08-15T12:43:25.473Z,25.30
2023-08-15T12:45:52.253Z,25.30
2023-08-15T12:48:19.044Z,25.20
2023-08-15T12:50:45.975Z,25.20
2023-08-15T12:53:13.802Z,25.10
2023-08-15T12:55:40.490Z,25.20
2023-08-15T12:58:07.252Z,25.20
2023-08-15T13:00:33.957Z,25.20
2023-08-15T13:03:00.965Z,25.20
2023-08-15T13:05:27.820Z,25.30
2023-08-15T13:07:55.121Z,25.30
2023-08-15T13:10:22.455Z,25.30
2023-08-15T13:12:49.152Z,25.40
2023-08-15T13:15:15.843Z,25.30
2023-08-15T13:17:44.134Z,25.20
2023-08-15T13:20:12.925Z,25.20
2023-08-15T13:22:39.628Z,25.10
2023-08-15T13:25:07.247Z,25.10
2023-08-15T13:27:34.101Z,25.00
2023-08-15T13:30:00.771Z,25.00
2023-08-15T13:32:27.575Z,25.00
2023-08-15T13:34:54.265Z,25.00
2023-08-15T13:37:21.011Z,25.00
2023-08-15T13:39:47.725Z,25.00
2023-08-15T13:42:23.159Z,24.90
2023-08-15T13:44:53.733Z,24.90
2023-08-15T13:47:21.163Z,24.90
2023-08-15T13:49:48.207Z,24.90
2023-08-15T13:52:14.942Z,25.00
2023-08-15T13:54:41.682Z,25.00
2023-08-15T13:57:08.373Z,25.00
2023-08-15T13:59:35.085Z,25.00
2023-08-15T14:02:02.010Z,25.00
2023-08-15T14:04:29.267Z,25.00
2023-08-15T14:06:59.832Z,24.90
2023-08-15T14:09:26.599Z,24.90
2023-08-15T14:11:53.318Z,24.90
2023-08-15T14:14:20.004Z,24.90
2023-08-15T14:16:48.854Z,24.90
2023-08-15T14:19:15.586Z,24.90
2023-08-15T14:21:42.276Z,24.90
2023-08-15T14:24:11.021Z,24.90
2023-08-15T14:26:37.711Z,25.00
2023-08-15T14:29:04.623Z,25.00
2023-08-15T14:31:32.465Z,25.00
2023-08-15T14:33:59.321Z,25.00
2023-08-15T14:36:26.038Z,25.10
2023-08-15T14:38:52.789Z,25.00
2023-08-15T14:41:19.494Z,25.10
2023-08-15T14:43:46.122Z,25.10
2023-08-15T14:46:12.890Z,25.10
2023-08-15T14:48:39.614Z,25.10
2023-08-15T14:51:07.032Z,25.00
2023-08-15T14:53:33.690Z,25.00
2023-08-15T14:56:01.445Z,25.00
2023-08-15T14:58:28.701Z,25.00
2023-08-15T15:00:55.427Z,25.00
2023-08-15T15:03:22.142Z,24.90
2023-08-15T15:05:48.910Z,24.90
2023-08-15T15:08:15.678Z,24.90
2023-08-15T15:10:42.607Z,24.90
2023-08-15T15:13:09.350Z,24.90
2023-08-15T15:15:53.031Z,24.90
2023-08-15T15:18:20.919Z,24.90
2023-08-15T15:20:47.889Z,24.90
2023-08-15T15:23:14.871Z,24.90
2023-08-15T15:25:50.790Z,24.90
2023-08-15T15:28:17.463Z,24.90
2023-08-15T15:30:44.149Z,25.00
2023-08-15T15:33:10.852Z,25.00
2023-08-15T15:35:37.520Z,25.00
2023-08-15T15:38:05.355Z,25.00
2023-08-15T15:40:32.286Z,25.00
2023-08-15T15:42:58.966Z,25.10
2023-08-15T15:45:25.620Z,25.10
2023-08-15T15:47:52.579Z,25.00
2023-08-15T15:50:21.123Z,25.00
2023-08-15T15:52:48.819Z,25.00
2023-08-15T15:55:20.953Z,25.00
2023-08-15T15:57:48.256Z,25.00
2023-08-15T16:00:17.209Z,25.00
2023-08-15T16:02:44.325Z,24.90
2023-08-15T16:05:12.404Z,24.90
2023-08-15T16:07:39.519Z,25.00
2023-08-15T16:10:07.007Z,24.80
2023-08-15T16:12:33.896Z,24.80
2023-08-15T16:15:01.601Z,24.70
2023-08-15T16:17:28.512Z,24.50
2023-08-15T16:19:56.541Z,24.50
2023-08-15T16:22:23.477Z,24.50
2023-08-15T16:24:50.427Z,24.50
2023-08-15T16:27:17.151Z,24.40
2023-08-15T16:29:43.836Z,24.40
2023-08-15T16:32:14.012Z,24.40
2023-08-15T16:34:42.528Z,24.40
2023-08-15T16:37:09.268Z,24.40
2023-08-15T16:39:35.956Z,24.40
2023-08-15T16:42:02.656Z,24.40
2023-08-15T16:44:29.465Z,24.30
2023-08-15T16:46:56.203Z,24.30
2023-08-15T16:49:23.024Z,24.30
2023-08-15T16:51:49.680Z,24.20
2023-08-15T16:54:16.396Z,24.20
2023-08-15T16:56:43.053Z,24.20
2023-08-15T16:59:09.757Z,24.20
2023-08-15T17:01:36.435Z,24.10
2023-08-15T17:04:03.383Z,24.00
2023-08-15T17:06:30.108Z,24.00
2023-08-15T17:08:56.842Z,24.00
2023-08-15T17:11:23.519Z,24.00
2023-08-15T17:13:50.280Z,24.00
2023-08-15T17:16:16.977Z,24.00
2023-08-15T17:18:43.712Z,24.00
2023-08-15T17:21:10.375Z,24.00
2023-08-15T17:23:37.140Z,24.00
2023-08-15T17:26:04.451Z,24.00
2023-08-15T17:28:31.236Z,24.10
2023-08-15T17:30:59.613Z,24.00
2023-08-15T17:33:27.654Z,24.00
2023-08-15T17:35:54.398Z,23.90
2023-08-15T17:38:21.048Z,23.90
2023-08-15T17:40:47.930Z,23.90
2023-08-15T17:43:14.671Z,23.90
2023-08-15T17:45:41.956Z,23.90
2023-08-15T17:48:09.746Z,23.90
2023-08-15T17:50:36.619Z,23.90
2023-08-15T17:53:03.323Z,23.90
2023-08-15T17:55:30.020Z,23.90
2023-08-15T17:57:56.735Z,23.90
2023-08-15T18:00:23.943Z,23.90
2023-08-15T18:02:50.817Z,23.80
2023-08-15T18:05:17.696Z,23.80
2023-08-15T18:07:44.511Z,23.70
2023-08-15T18:10:11.388Z,23.60
2023-08-15T18:12:38.107Z,23.70
2023-08-15T18:15:05.296Z,23.60
2023-08-15T18:17:32.158Z,23.60
2023-08-15T18:20:01.244Z,23.60
2023-08-15T18:22:28.011Z,23.50
2023-08-15T18:24:54.781Z,23.50
2023-08-15T18:27:21.498Z,23.50
2023-08-15T18:29:48.282Z,23.40
2023-08-15T18:32:14.984Z,23.40
2023-08-15T18:34:41.739Z,23.40
2023-08-15T18:37:08.439Z,23.30
2023-08-15T18:39:35.161Z,23.30
2023-08-15T18:42:02.028Z,23.20
2023-08-15T18:44:28.695Z,23.20
2023-08-15T18:46:55.365Z,23.10
2023-08-15T18:49:22.050Z,23.10
2023-08-15T18:51:48.768Z,23.00
2023-08-15T18:54:15.449Z,23.00
2023-08-15T18:56:42.102Z,22.90
2023-08-15T18:59:09.881Z,22.90
2023-08-15T19:01:36.635Z,22.80
2023-08-15T19:04:04.225Z,22.80
2023-08-15T19:06:31.171Z,22.80
2023-08-15T19:08:57.828Z,24.50
2023-08-15T19:11:24.604Z,22.70
2023-08-15T19:13:51.262Z,22.70
2023-08-15T19:16:17.997Z,22.70
2023-08-15T19:18:44.675Z,22.60
2023-08-15T19:21:12.766Z,22.60
2023-08-15T19:23:39.521Z,22.60
2023-08-15T19:26:06.500Z,22.60
2023-08-15T19:28:33.475Z,22.50
2023-08-15T19:31:00.219Z,22.50
2023-08-15T19:33:26.934Z,22.50
2023-08-15T19:35:54.116Z,22.50
2023-08-15T19:38:20.861Z,22.40
2023-08-15T19:40:48.084Z,22.40
2023-08-15T19:43:14.911Z,22.30
2023-08-15T19:45:41.626Z,22.30
2023-08-15T19:48:08.402Z,22.30
2023-08-15T19:50:35.460Z,22.20
2023-08-15T19:53:02.141Z,22.20
2023-08-15T19:55:30.719Z,22.10
2023-08-15T19:57:58.746Z,22.10
2023-08-15T20:00:25.417Z,22.00
2023-08-15T20:02:52.327Z,22.00
2023-08-15T20:05:19.152Z,22.00
2023-08-15T20:07:45.910Z,22.00
2023-08-15T20:10:13.140Z,22.00
2023-08-15T20:12:40.140Z,21.90
2023-08-15T20:15:08.108Z,21.80
2023-08-15T20:17:34.911Z,21.80
2023-08-15T20:20:01.782Z,21.80
2023-08-15T20:22:28.506Z,21.70
2023-08-15T20:24:57.479Z,21.70
2023-08-15T20:27:24.145Z,21.60
2023-08-15T20:29:54.113Z,21.60
2023-08-15T20:32:21.213Z,21.50
2023-08-15T20:34:48.298Z,21.50
2023-08-15T20:37:15.118Z,21.40
2023-08-15T20:39:41.820Z,21.40
2023-08-15T20:42:09.865Z,21.40
2023-08-15T20:44:36.629Z,21.40
2023-08-15T20:47:03.656Z,21.30
2023-08-15T20:49:30.346Z,21.90
2023-08-15T20:51:57.488Z,21.30
2023-08-15T20:54:24.359Z,21.20
2023-08-15T20:56:51.031Z,21.20
2023-08-15T20:59:17.719Z,21.10
2023-08-15T21:01:44.440Z,21.10
2023-08-15T21:04:11.253Z,21.00
2023-08-15T21:06:37.976Z,21.00
2023-08-15T21:09:04.910Z,21.00
2023-08-15T21:11:31.597Z,20.90
2023-08-15T21:13:59.034Z,20.90
2023-08-15T21:16:25.748Z,20.90
2023-08-15T21:18:52.465Z,20.80
2023-08-15T21:21:19.172Z,20.80
2023-08-15T21:23:45.844Z,20.70
2023-08-15T21:26:13.342Z,20.70
2023-08-15T21:28:40.030Z,20.70
2023-08-15T21:31:06.903Z,20.70
2023-08-15T21:33:34.101Z,20.60
2023-08-15T21:36:01.275Z,20.60
2023-08-15T21:38:27.976Z,20.50
2023-08-15T21:40:55.060Z,20.40
2023-08-15T21:43:21.810Z,20.40
2023-08-15T21:45:48.997Z,20.30
2023-08-15T21:48:15.740Z,20.30
2023-08-15T21:50:42.474Z,20.20
2023-08-15T21:53:09.293Z,20.20
2023-08-15T21:55:35.971Z,20.20
2023-08-15T21:58:02.676Z,20.10
2023-08-15T22:00:29.453Z,20.10
2023-08-15T22:02:59.339Z,20.00
2023-08-15T22:05:26.704Z,20.00
2023-08-15T22:07:54.001Z,20.00
2023-08-15T22:10:21.924Z,20.00
2023-08-15T22:12:49.964Z,19.90
2023-08-15T22:15:20.497Z,19.90
2023-08-15T22:17:54.508Z,19.90
2023-08-15T22:20:27.559Z,19.80
2023-08-15T22:22:54.246Z,19.80
2023-08-15T22:25:21.886Z,19.70
2023-08-15T22:27:49.852Z,19.70
2023-08-15T22:30:16.817Z,19.70
2023-08-15T22:32:43.541Z,19.70
2023-08-15T22:35:11.000Z,19.60
2023-08-15T22:37:37.907Z,19.60
2023-08-15T22:40:05.169Z,19.60
2023-08-15T22:42:32.493Z,19.50
2023-08-15T22:44:59.368Z,19.50
2023-08-15T22:47:26.092Z,19.50
2023-08-15T22:49:52.805Z,19.50
2023-08-15T22:52:19.581Z,19.40
2023-08-15T22:54:46.358Z,19.40
2023-08-15T22:57:13.036Z,19.40
2023-08-15T22:59:39.728Z,19.40
2023-08-15T23:02:06.427Z,19.40
2023-08-15T23:04:33.160Z,19.40
2023-08-15T23:06:59.855Z,19.40
2023-08-15T23:09:26.553Z,19.30
2023-08-15T23:11:53.288Z,19.20
2023-08-15T23:14:20.014Z,19.20
2023-08-15T23:16:46.761Z,19.20
2023-08-15T23:19:13.531Z,19.10
2023-08-15T23:21:42.378Z,19.10
2023-08-15T23:24:09.561Z,19.10
2023-08-15T23:26:36.922Z,19.00
2023-08-15T23:29:04.383Z,19.00
2023-08-15T23:31:37.545Z,19.00
2023-08-15T23:34:05.457Z,19.00
2023-08-15T23:36:33.017Z,18.90
2023-08-15T23:39:00.113Z,18.90
2023-08-15T23:41:27.396Z,18.90
2023-08-15T23:43:55.179Z,18.80
2023-08-15T23:46:23.013Z,18.80
2023-08-15T23:48:50.450Z,18.70
2023-08-15T23:51:17.368Z,18.70
2023-08-15T23:53:45.588Z,18.70
2023-08-15T23:56:12.477Z,18.70
2023-08-15T23:58:39.173Z,18.70
